createdAt,value
2018-04-29T00:01:53.581Z,11.37
2018-04-29T00:04:21.048Z,19.40
2018-04-29T00:06:48.610Z,20.80
2018-04-29T00:09:16.077Z,20.83
2018-04-29T00:11:43.657Z,21.12
2018-04-29T00:14:11.238Z,17.90
2018-04-29T00:16:39.466Z,19.15
2018-04-29T00:19:06.948Z,19.90
2018-04-29T00:21:34.432Z,22.05
2018-04-29T00:24:01.971Z,20.27
2018-04-29T00:26:29.505Z,20.42
2018-04-29T00:28:57.077Z,18.15
2018-04-29T00:31:24.542Z,15.27
2018-04-29T00:33:52.027Z,12.20
2018-04-29T00:36:19.517Z,10.80
2018-04-29T00:38:47.770Z,10.20
2018-04-29T00:41:15.335Z,9.60
2018-04-29T00:43:42.822Z,7.32
2018-04-29T00:46:10.356Z,7.30
2018-04-29T00:48:37.852Z,7.10
2018-04-29T00:51:05.348Z,8.00
2018-04-29T00:53:33.645Z,27.95
2018-04-29T00:56:01.894Z,31.33
2018-04-29T00:58:29.361Z,43.00
2018-04-29T01:00:56.843Z,30.58
2018-04-29T01:03:24.420Z,19.80
2018-04-29T01:05:51.988Z,14.90
2018-04-29T01:08:19.417Z,13.40
2018-04-29T01:10:46.924Z,12.90
2018-04-29T01:13:14.404Z,13.00
2018-04-29T01:15:41.871Z,11.73
2018-04-29T01:18:09.338Z,11.05
2018-04-29T01:20:36.802Z,9.55
2018-04-29T01:23:04.442Z,9.20
2018-04-29T01:25:31.932Z,8.25
2018-04-29T01:27:59.403Z,8.55
2018-04-29T01:30:26.957Z,7.70
2018-04-29T01:32:54.451Z,7.85
2018-04-29T01:35:21.924Z,7.83
2018-04-29T01:37:49.398Z,7.65
2018-04-29T01:40:16.874Z,7.97
2018-04-29T01:42:44.434Z,7.97
2018-04-29T01:45:11.921Z,7.68
2018-04-29T01:47:39.401Z,8.27
2018-04-29T01:50:07.673Z,8.37
2018-04-29T01:52:35.238Z,7.50
2018-04-29T01:55:02.790Z,7.90
2018-04-29T01:57:30.355Z,8.30
2018-04-29T01:59:57.845Z,8.60
2018-04-29T02:02:25.318Z,8.98
2018-04-29T02:04:52.805Z,8.50
2018-04-29T02:07:21.038Z,8.68
2018-04-29T02:09:48.554Z,8.30
2018-04-29T02:12:16.116Z,8.30
2018-04-29T02:14:43.701Z,9.20
2018-04-29T02:17:11.178Z,8.43
2018-04-29T02:19:38.645Z,8.87
2018-04-29T02:22:06.897Z,9.75
2018-04-29T02:24:34.354Z,9.80
2018-04-29T02:27:01.854Z,10.50
2018-04-29T02:29:29.444Z,11.40
2018-04-29T02:31:57.688Z,11.48
2018-04-29T02:34:25.187Z,11.73
2018-04-29T02:36:52.666Z,10.60
2018-04-29T02:39:20.131Z,10.30
2018-04-29T02:41:47.693Z,9.43
2018-04-29T02:44:15.171Z,10.20
2018-04-29T02:46:42.640Z,10.18
2018-04-29T02:49:10.115Z,10.10
2018-04-29T02:51:38.414Z,10.02
2018-04-29T02:54:06.687Z,10.18
2018-04-29T02:56:34.154Z,10.63
2018-04-29T02:59:01.645Z,10.68
2018-04-29T03:01:29.890Z,10.50
2018-04-29T03:03:57.348Z,10.40
2018-04-29T03:06:24.853Z,9.68
2018-04-29T03:08:52.428Z,10.35
2018-04-29T03:11:19.921Z,10.52
2018-04-29T03:13:48.192Z,9.98
2018-04-29T03:16:15.658Z,10.63
2018-04-29T03:18:43.214Z,10.82
2018-04-29T03:21:10.697Z,11.07
2018-04-29T03:23:38.255Z,10.95
2018-04-29T03:26:05.844Z,11.05
2018-04-29T03:28:33.418Z,9.77
2018-04-29T03:31:00.971Z,10.35
2018-04-29T03:33:28.457Z,11.30
2018-04-29T03:35:56.023Z,11.40
2018-04-29T03:38:23.512Z,11.38
2018-04-29T03:40:51.742Z,11.95
2018-04-29T03:43:19.264Z,12.13
2018-04-29T03:45:46.751Z,11.37
2018-04-29T03:48:14.989Z,11.70
2018-04-29T03:50:42.473Z,11.60
2018-04-29T03:53:11.461Z,11.93
2018-04-29T03:55:38.942Z,12.00
2018-04-29T03:58:18.512Z,12.27
2018-04-29T04:00:58.378Z,12.20
2018-04-29T04:03:37.715Z,11.85
2018-04-29T04:06:06.025Z,11.60
2018-04-29T04:11:24.800Z,11.38
2018-04-29T04:13:52.266Z,11.40
2018-04-29T04:16:19.746Z,11.40
2018-04-29T04:18:47.208Z,11.40
2018-04-29T04:21:14.690Z,11.20
2018-04-29T04:23:42.312Z,10.80
2018-04-29T04:26:09.700Z,11.10
2018-04-29T04:28:37.173Z,10.90
2018-04-29T04:31:04.646Z,11.50
2018-04-29T04:33:32.228Z,11.73
2018-04-29T04:35:59.695Z,11.95
2018-04-29T04:38:27.280Z,10.90
2018-04-29T04:40:55.540Z,11.27
2018-04-29T04:43:23.039Z,11.77
2018-04-29T04:45:50.527Z,11.90
2018-04-29T04:48:18.780Z,11.27
2018-04-29T04:50:46.382Z,12.60
2018-04-29T04:53:13.829Z,12.00
2018-04-29T04:55:41.284Z,12.98
2018-04-29T04:58:08.771Z,12.82
2018-04-29T05:00:36.224Z,13.45
2018-04-29T05:03:03.713Z,13.25
2018-04-29T05:05:31.302Z,12.52
2018-04-29T05:07:59.529Z,13.45
2018-04-29T05:10:27.014Z,12.82
2018-04-29T05:12:54.480Z,12.88
2018-04-29T05:15:21.963Z,13.00
2018-04-29T05:17:49.408Z,12.48
2018-04-29T05:20:16.891Z,13.00
2018-04-29T05:22:44.371Z,12.80
2018-04-29T05:25:11.966Z,13.40
2018-04-29T05:27:39.456Z,12.90
2018-04-29T05:30:07.669Z,13.90
2018-04-29T05:32:35.182Z,13.30
2018-04-29T05:35:02.671Z,12.88
2018-04-29T05:37:30.936Z,12.90
2018-04-29T05:39:58.392Z,12.80
2018-04-29T05:42:25.848Z,12.80
2018-04-29T05:44:53.331Z,13.15
2018-04-29T05:47:20.819Z,14.40
2018-04-29T05:52:39.341Z,14.60
2018-04-29T05:55:07.582Z,13.88
2018-04-29T05:57:35.056Z,14.57
2018-04-29T06:00:02.551Z,14.55
2018-04-29T06:02:30.016Z,15.50
2018-04-29T06:04:57.579Z,14.15
2018-04-29T06:07:25.136Z,13.07
2018-04-29T06:09:52.617Z,14.10
2018-04-29T06:12:20.142Z,13.82
2018-04-29T06:14:48.401Z,14.52
2018-04-29T06:17:15.855Z,12.90
2018-04-29T06:19:43.430Z,14.10
2018-04-29T06:22:10.896Z,13.10
2018-04-29T06:24:38.370Z,13.60
2018-04-29T06:27:05.824Z,12.75
2018-04-29T06:29:33.384Z,13.80
2018-04-29T06:32:00.917Z,13.43
2018-04-29T06:34:28.338Z,14.32
2018-04-29T06:36:55.789Z,14.17
2018-04-29T06:39:23.262Z,13.45
2018-04-29T06:41:50.824Z,13.75
2018-04-29T06:44:18.301Z,13.77
2018-04-29T06:46:45.831Z,13.87
2018-04-29T06:49:13.269Z,13.50
2018-04-29T06:51:40.728Z,12.68
2018-04-29T06:54:08.236Z,13.35
2018-04-29T06:56:36.491Z,12.50
2018-04-29T06:59:04.060Z,13.20
2018-04-29T07:01:31.555Z,13.02
2018-04-29T07:03:59.119Z,12.60
2018-04-29T07:06:26.573Z,13.37
2018-04-29T07:08:54.144Z,13.00
2018-04-29T07:11:21.598Z,13.48
2018-04-29T07:13:49.061Z,13.52
2018-04-29T07:16:16.547Z,13.53
2018-04-29T07:18:44.013Z,13.50
2018-04-29T07:21:11.482Z,12.43
2018-04-29T07:23:38.960Z,12.68
2018-04-29T07:26:06.453Z,12.70
2018-04-29T07:28:33.980Z,12.63
2018-04-29T07:31:02.152Z,10.80
2018-04-29T07:33:29.623Z,12.13
2018-04-29T07:35:57.074Z,10.63
2018-04-29T07:38:24.559Z,11.68
2018-04-29T07:40:52.013Z,11.37
2018-04-29T07:43:19.486Z,10.82
2018-04-29T07:45:46.959Z,10.45
2018-04-29T07:48:14.443Z,10.68
2018-04-29T07:50:41.926Z,10.85
2018-04-29T07:53:09.397Z,11.48
2018-04-29T07:55:36.868Z,11.00
2018-04-29T07:58:04.338Z,11.70
2018-04-29T08:00:31.818Z,11.85
2018-04-29T08:02:59.271Z,11.98
2018-04-29T08:05:26.733Z,12.67
2018-04-29T08:07:54.192Z,11.30
2018-04-29T08:10:21.685Z,12.00
2018-04-29T08:12:49.165Z,12.80
2018-04-29T08:15:16.643Z,12.60
2018-04-29T08:17:44.100Z,13.15
2018-04-29T08:20:11.575Z,12.85
2018-04-29T08:22:39.105Z,13.30
2018-04-29T08:25:06.506Z,12.35
2018-04-29T08:27:33.994Z,13.88
2018-04-29T08:30:01.495Z,12.88
2018-04-29T08:32:29.054Z,13.62
2018-04-29T08:34:56.476Z,13.65
2018-04-29T08:37:23.950Z,13.95
2018-04-29T08:39:51.434Z,14.27
2018-04-29T08:42:18.904Z,13.43
2018-04-29T08:44:46.483Z,13.20
2018-04-29T08:47:13.936Z,13.90
2018-04-29T08:49:41.412Z,13.85
2018-04-29T08:52:08.882Z,13.57
2018-04-29T08:54:36.382Z,14.50
2018-04-29T08:57:03.912Z,14.13
2018-04-29T08:59:31.406Z,14.98
2018-04-29T09:01:58.958Z,13.40
2018-04-29T09:04:26.442Z,14.27
2018-04-29T09:06:53.891Z,14.23
2018-04-29T09:09:21.377Z,14.35
2018-04-29T09:11:48.952Z,15.80
2018-04-29T09:14:16.417Z,14.75
2018-04-29T09:16:43.898Z,14.05
2018-04-29T09:19:11.460Z,14.30
2018-04-29T09:21:39.033Z,14.10
2018-04-29T09:24:06.498Z,14.20
2018-04-29T09:26:34.067Z,15.27
2018-04-29T09:29:01.540Z,14.10
2018-04-29T09:31:29.019Z,14.27
2018-04-29T09:33:56.491Z,13.68
2018-04-29T09:36:23.936Z,14.55
2018-04-29T09:38:51.409Z,14.85
2018-04-29T09:41:18.884Z,14.80
2018-04-29T09:43:46.348Z,14.68
2018-04-29T09:46:13.810Z,16.70
2018-04-29T09:48:41.369Z,17.37
2018-04-29T09:51:08.761Z,17.60
2018-04-29T09:53:36.228Z,16.90
2018-04-29T09:56:03.720Z,17.30
2018-04-29T09:58:31.272Z,17.40
2018-04-29T10:00:58.749Z,16.90
2018-04-29T10:03:26.211Z,17.37
2018-04-29T10:05:53.664Z,17.10
2018-04-29T10:08:21.129Z,18.50
2018-04-29T10:10:48.610Z,18.17
2018-04-29T10:13:16.094Z,16.10
2018-04-29T10:15:43.563Z,15.00
2018-04-29T10:18:11.041Z,16.15
2018-04-29T10:20:38.531Z,14.40
2018-04-29T10:23:06.779Z,14.18
2018-04-29T10:25:34.233Z,15.45
2018-04-29T10:28:01.716Z,13.80
2018-04-29T10:30:29.196Z,13.38
2018-04-29T10:32:56.684Z,13.10
2018-04-29T10:35:24.176Z,11.27
2018-04-29T10:37:52.398Z,10.50
2018-04-29T10:40:19.852Z,11.35
2018-04-29T10:42:47.326Z,11.25
2018-04-29T10:45:14.798Z,8.27
2018-04-29T10:47:42.284Z,9.02
2018-04-29T10:50:09.735Z,7.90
2018-04-29T10:52:37.255Z,8.60
2018-04-29T10:57:56.577Z,7.68
2018-04-29T11:00:24.122Z,6.62
2018-04-29T11:02:51.686Z,7.47
2018-04-29T11:05:19.159Z,7.17
2018-04-29T11:07:46.709Z,6.70
2018-04-29T11:10:14.125Z,6.60
2018-04-29T11:12:41.686Z,6.65
2018-04-29T11:15:09.259Z,5.80
2018-04-29T11:17:36.818Z,5.70
2018-04-29T11:20:04.408Z,5.43
2018-04-29T11:22:31.865Z,5.00
2018-04-29T11:24:59.546Z,5.10
2018-04-29T11:27:27.063Z,4.77
2018-04-29T11:29:55.313Z,5.00
2018-04-29T11:32:22.773Z,5.10
2018-04-29T11:34:50.358Z,4.70
2018-04-29T11:37:17.898Z,4.20
2018-04-29T11:39:45.378Z,4.60
2018-04-29T11:42:12.850Z,4.30
2018-04-29T11:44:40.329Z,4.50
2018-04-29T11:47:07.791Z,4.40
2018-04-29T11:49:35.346Z,4.63
2018-04-29T11:52:02.923Z,6.10
2018-04-29T11:54:30.402Z,4.37
2018-04-29T11:56:57.862Z,4.53
2018-04-29T11:59:25.358Z,4.60
2018-04-29T12:01:52.861Z,4.60
2018-04-29T12:04:21.079Z,4.25
2018-04-29T12:06:48.547Z,4.40
2018-04-29T12:09:16.014Z,4.43
2018-04-29T12:11:43.472Z,4.28
2018-04-29T12:14:10.922Z,4.60
2018-04-29T12:16:38.444Z,4.85
2018-04-29T12:19:05.914Z,4.80
2018-04-29T12:21:33.371Z,5.00
2018-04-29T12:24:00.842Z,4.80
2018-04-29T12:26:28.326Z,4.20
2018-04-29T12:28:55.806Z,4.85
2018-04-29T12:31:23.260Z,5.10
2018-04-29T12:33:50.713Z,4.70
2018-04-29T12:36:18.213Z,4.20
2018-04-29T12:38:45.686Z,4.50
2018-04-29T12:41:13.128Z,4.00
2018-04-29T12:43:40.591Z,4.40
2018-04-29T12:46:08.049Z,4.00
2018-04-29T12:48:35.502Z,3.90
2018-04-29T12:51:02.984Z,3.65
2018-04-29T12:53:30.451Z,4.10
2018-04-29T12:55:57.911Z,3.70
2018-04-29T12:58:25.367Z,4.03
2018-04-29T13:00:53.611Z,4.22
2018-04-29T13:03:21.084Z,3.87
2018-04-29T13:05:48.571Z,3.70
2018-04-29T13:08:16.041Z,3.70
2018-04-29T13:10:43.576Z,3.87
2018-04-29T13:13:11.054Z,4.97
2018-04-29T13:15:38.528Z,4.18
2018-04-29T13:18:06.022Z,3.60
2018-04-29T13:20:33.494Z,5.50
2018-04-29T13:23:00.966Z,3.80
2018-04-29T13:25:28.520Z,3.50
2018-04-29T13:27:56.086Z,3.37
2018-04-29T13:30:23.543Z,4.20
2018-04-29T13:32:51.016Z,4.10
2018-04-29T13:35:18.487Z,3.72
2018-04-29T13:37:45.931Z,5.75
2018-04-29T13:40:13.408Z,6.70
2018-04-29T13:42:40.859Z,4.50
2018-04-29T13:45:08.296Z,5.17
2018-04-29T13:47:36.520Z,5.20
2018-04-29T13:50:03.980Z,4.32
2018-04-29T13:52:31.453Z,4.55
2018-04-29T13:54:58.901Z,4.00
2018-04-29T13:57:27.135Z,4.00
2018-04-29T13:59:54.591Z,3.87
2018-04-29T14:02:22.111Z,3.72
2018-04-29T14:04:49.589Z,3.40
2018-04-29T14:07:17.180Z,3.50
2018-04-29T14:09:44.657Z,3.30
2018-04-29T14:12:12.171Z,3.20
2018-04-29T14:14:39.758Z,4.45
2018-04-29T14:17:08.724Z,5.22
2018-04-29T14:19:36.223Z,6.72
2018-04-29T14:22:03.799Z,7.07
2018-04-29T14:24:31.256Z,4.70
2018-04-29T14:26:58.727Z,3.60
2018-04-29T14:29:26.255Z,3.50
2018-04-29T14:31:54.504Z,3.50
2018-04-29T14:34:22.075Z,3.83
2018-04-29T14:36:49.557Z,4.03
2018-04-29T14:39:17.018Z,3.90
2018-04-29T14:41:44.510Z,3.70
2018-04-29T14:44:12.763Z,4.00
2018-04-29T14:46:40.224Z,4.50
2018-04-29T14:49:07.709Z,4.37
2018-04-29T14:51:35.184Z,4.32
2018-04-29T14:54:02.661Z,4.32
2018-04-29T14:56:30.102Z,4.00
2018-04-29T14:58:57.583Z,4.32
2018-04-29T15:01:25.073Z,4.00
2018-04-29T15:03:52.505Z,4.40
2018-04-29T15:06:19.957Z,4.50
2018-04-29T15:08:47.541Z,3.78
2018-04-29T15:11:15.003Z,4.40
2018-04-29T15:13:42.504Z,4.32
2018-04-29T15:16:10.155Z,4.28
2018-04-29T15:18:49.615Z,4.28
2018-04-29T15:21:17.086Z,4.20
2018-04-29T15:23:44.573Z,4.00
2018-04-29T15:26:12.131Z,3.90
2018-04-29T15:28:39.589Z,4.10
2018-04-29T15:31:07.085Z,3.97
2018-04-29T15:33:34.548Z,4.50
2018-04-29T15:36:01.991Z,4.40
2018-04-29T15:38:29.476Z,4.32
2018-04-29T15:40:56.944Z,5.05
2018-04-29T15:43:24.422Z,4.00
2018-04-29T15:45:51.900Z,4.60
2018-04-29T15:48:19.476Z,3.95
2018-04-29T15:50:46.942Z,3.90
2018-04-29T15:53:14.395Z,3.00
2018-04-29T15:55:41.921Z,3.57
2018-04-29T15:58:09.520Z,3.37
2018-04-29T16:00:36.899Z,3.30
2018-04-29T16:03:04.359Z,3.53
2018-04-29T16:05:31.812Z,3.35
2018-04-29T16:07:59.309Z,3.50
2018-04-29T16:10:26.788Z,3.40
2018-04-29T16:12:54.258Z,3.20
2018-04-29T16:15:21.710Z,3.30
2018-04-29T16:17:49.199Z,3.80
2018-04-29T16:20:16.646Z,3.83
2018-04-29T16:22:44.100Z,3.80
2018-04-29T16:25:11.572Z,3.70
2018-04-29T16:27:39.056Z,3.90
2018-04-29T16:30:06.523Z,3.62
2018-04-29T16:32:33.987Z,3.90
2018-04-29T16:35:01.473Z,6.22
2018-04-29T16:37:28.934Z,4.50
2018-04-29T16:39:56.394Z,5.28
2018-04-29T16:42:23.861Z,5.22
2018-04-29T16:44:51.364Z,7.20
2018-04-29T16:47:18.921Z,5.80
2018-04-29T16:49:46.405Z,4.33
2018-04-29T16:52:13.972Z,4.07
2018-04-29T16:54:41.428Z,3.70
2018-04-29T16:57:08.871Z,6.80
2018-04-29T16:59:36.337Z,4.77
2018-04-29T17:02:03.857Z,4.72
2018-04-29T17:04:31.311Z,3.70
2018-04-29T17:06:58.767Z,4.00
2018-04-29T17:09:26.260Z,3.80
2018-04-29T17:11:53.689Z,6.55
2018-04-29T17:14:21.158Z,3.80
2018-04-29T17:16:48.610Z,4.18
2018-04-29T17:19:16.138Z,3.97
2018-04-29T17:21:43.589Z,4.00
2018-04-29T17:24:11.156Z,3.90
2018-04-29T17:26:38.649Z,4.50
2018-04-29T17:29:06.226Z,4.50
2018-04-29T17:31:33.686Z,5.97
2018-04-29T17:34:01.909Z,8.20
2018-04-29T17:36:30.146Z,4.55
2018-04-29T17:38:57.635Z,4.10
2018-04-29T17:44:16.010Z,4.20
2018-04-29T17:46:43.394Z,5.50
2018-04-29T17:49:10.940Z,5.30
2018-04-29T17:51:38.406Z,5.28
2018-04-29T17:54:05.878Z,17.85
2018-04-29T17:56:33.375Z,5.35
2018-04-29T18:01:55.127Z,8.85
2018-04-29T18:07:13.431Z,9.77
2018-04-29T18:09:40.891Z,7.30
2018-04-29T18:12:08.386Z,6.15
2018-04-29T18:14:35.938Z,5.00
2018-04-29T18:17:03.512Z,4.70
2018-04-29T18:19:30.917Z,5.22
2018-04-29T18:21:58.805Z,5.10
2018-04-29T18:24:27.035Z,5.50
2018-04-29T18:26:54.627Z,5.22
2018-04-29T18:29:22.072Z,5.35
2018-04-29T18:31:49.539Z,5.90
2018-04-29T18:34:17.008Z,8.40
2018-04-29T18:36:44.474Z,6.40
2018-04-29T18:39:11.959Z,6.10
2018-04-29T18:41:39.438Z,6.20
2018-04-29T18:44:06.918Z,11.43
2018-04-29T18:46:34.363Z,16.05
2018-04-29T18:49:01.824Z,8.27
2018-04-29T18:51:29.404Z,7.40
2018-04-29T18:53:56.771Z,7.07
2018-04-29T18:56:24.959Z,7.50
2018-04-29T18:58:52.427Z,6.00
2018-04-29T19:01:19.887Z,10.48
2018-04-29T19:03:47.353Z,8.98
2018-04-29T19:06:14.828Z,6.28
2018-04-29T19:08:42.282Z,6.40
2018-04-29T19:11:09.760Z,5.72
2018-04-29T19:13:37.235Z,7.20
2018-04-29T19:16:04.692Z,19.27
2018-04-29T19:18:32.176Z,10.82
2018-04-29T19:23:51.111Z,6.40
2018-04-29T19:26:18.511Z,6.10
2018-04-29T19:28:46.021Z,6.00
2018-04-29T19:31:13.491Z,13.55
2018-04-29T19:33:40.965Z,11.43
2018-04-29T19:36:08.440Z,9.45
2018-04-29T19:38:35.939Z,8.73
2018-04-29T19:41:03.424Z,9.30
2018-04-29T19:43:30.902Z,8.38
2018-04-29T19:45:58.351Z,20.10
2018-04-29T19:48:26.595Z,8.07
2018-04-29T19:50:54.058Z,5.30
2018-04-29T19:53:21.530Z,5.90
2018-04-29T19:55:48.996Z,11.10
2018-04-29T19:58:17.172Z,34.53
2018-04-29T20:00:44.647Z,6.37
2018-04-29T20:03:12.100Z,5.65
2018-04-29T20:05:39.590Z,5.82
2018-04-29T20:08:07.036Z,5.90
2018-04-29T20:10:34.502Z,17.60
2018-04-29T20:13:01.997Z,15.20
2018-04-29T20:15:29.468Z,7.22
2018-04-29T20:17:56.946Z,11.10
2018-04-29T20:20:24.421Z,9.60
2018-04-29T20:22:51.875Z,9.93
2018-04-29T20:25:19.334Z,8.93
2018-04-29T20:30:37.517Z,9.10
2018-04-29T20:33:04.988Z,6.43
2018-04-29T20:35:32.488Z,9.35
2018-04-29T20:38:00.032Z,6.95
2018-04-29T20:40:27.426Z,5.37
2018-04-29T20:42:54.882Z,5.43
2018-04-29T20:45:22.389Z,5.60
2018-04-29T20:47:49.877Z,5.00
2018-04-29T20:50:18.126Z,15.00
2018-04-29T20:52:45.631Z,16.77
2018-04-29T20:55:13.861Z,6.10
2018-04-29T20:57:41.346Z,15.82
2018-04-29T21:00:08.861Z,9.25
2018-04-29T21:02:37.223Z,9.40
2018-04-29T21:05:04.809Z,14.52
2018-04-29T21:07:32.295Z,6.97
2018-04-29T21:10:00.530Z,6.83
2018-04-29T21:12:28.016Z,11.02
2018-04-29T21:14:55.614Z,15.67
2018-04-29T21:17:23.202Z,14.82
2018-04-29T21:19:51.697Z,11.07
2018-04-29T21:22:19.986Z,7.00
2018-04-29T21:24:47.416Z,21.45
2018-04-29T21:27:14.896Z,13.32
2018-04-29T21:29:42.377Z,23.92
2018-04-29T21:32:09.961Z,13.30
2018-04-29T21:34:38.315Z,36.63
2018-04-29T21:37:05.791Z,15.93
2018-04-29T21:39:33.255Z,18.40
2018-04-29T21:42:00.745Z,15.65
2018-04-29T21:44:28.233Z,10.52
2018-04-29T21:46:56.499Z,14.10
2018-04-29T21:49:24.078Z,12.37
2018-04-29T21:51:51.593Z,18.65
2018-04-29T21:54:19.064Z,10.00
2018-04-29T21:56:49.449Z,9.93
2018-04-29T21:59:16.945Z,9.80
2018-04-29T22:01:45.190Z,8.20
2018-04-29T22:04:12.786Z,11.48
2018-04-29T22:06:40.257Z,9.40
2018-04-29T22:09:07.821Z,7.10
2018-04-29T22:11:35.289Z,7.70
2018-04-29T22:14:02.786Z,7.28
2018-04-29T22:16:30.293Z,7.30
2018-04-29T22:18:57.797Z,7.28
2018-04-29T22:21:25.266Z,7.20
2018-04-29T22:23:52.844Z,7.20
2018-04-29T22:26:20.311Z,7.68
2018-04-29T22:28:47.866Z,7.20
2018-04-29T22:31:15.350Z,7.15
2018-04-29T22:33:42.818Z,7.90
2018-04-29T22:36:10.375Z,7.47
2018-04-29T22:38:37.959Z,7.32
2018-04-29T22:41:05.437Z,7.37
2018-04-29T22:43:32.929Z,7.78
2018-04-29T22:46:01.204Z,6.90
2018-04-29T22:48:28.743Z,8.00
2018-04-29T22:50:56.229Z,7.75
2018-04-29T22:53:23.691Z,7.25
2018-04-29T22:55:51.170Z,7.60
2018-04-29T22:58:20.154Z,8.27
2018-04-29T23:00:47.612Z,7.63
2018-04-29T23:03:15.099Z,8.27
2018-04-29T23:05:42.575Z,7.70
2018-04-29T23:08:10.149Z,7.65
2018-04-29T23:10:37.729Z,7.85
2018-04-29T23:13:05.187Z,7.40
2018-04-29T23:15:32.669Z,7.65
2018-04-29T23:18:00.139Z,7.70
2018-04-29T23:20:27.617Z,8.10
2018-04-29T23:22:55.101Z,8.05
2018-04-29T23:25:23.346Z,8.20
2018-04-29T23:27:50.798Z,7.82
2018-04-29T23:30:18.279Z,8.15
2018-04-29T23:32:45.766Z,8.48
2018-04-29T23:35:13.251Z,8.23
2018-04-29T23:37:40.742Z,8.45
2018-04-29T23:40:08.979Z,8.45
2018-04-29T23:42:36.577Z,8.82
2018-04-29T23:45:04.055Z,9.10
2018-04-29T23:47:31.726Z,9.32
2018-04-29T23:49:59.211Z,9.60
2018-04-29T23:52:27.480Z,10.20
2018-04-29T23:54:55.050Z,9.82
2018-04-29T23:57:22.545Z,10.50
